sensor_id;sensor_type;location;lat;lon;timestamp;noise_LAeq;noise_LA_min;noise_LA_max;noise_LA01;noise_LA95
72276;Laerm;61204;49.980;8.358;2023-03-23T00:01:19;50.12;42.35;59.77;;
72276;Laerm;61204;49.980;8.358;2023-03-23T00:03:48;49.51;41.30;58.19;;
72276;Laerm;61204;49.980;8.358;2023-03-23T00:06:14;49.04;43.50;56.60;;
72276;Laerm;61204;49.980;8.358;2023-03-23T00:08:45;51.07;43.67;56.87;;
72276;Laerm;61204;49.980;8.358;2023-03-23T00:11:19;52.32;46.72;60.42;;
72276;Laerm;61204;49.980;8.358;2023-03-23T00:13:47;49.95;43.50;57.73;;
72276;Laerm;61204;49.980;8.358;2023-03-23T00:16:16;51.15;43.50;61.10;;
72276;Laerm;61204;49.980;8.358;2023-03-23T00:18:50;50.20;43.72;57.11;;
72276;Laerm;61204;49.980;8.358;2023-03-23T00:21:20;50.15;43.65;59.14;;
72276;Laerm;61204;49.980;8.358;2023-03-23T00:23:52;49.63;42.52;59.96;;
72276;Laerm;61204;49.980;8.358;2023-03-23T00:26:18;48.28;43.08;54.51;;
72276;Laerm;61204;49.980;8.358;2023-03-23T00:28:44;49.55;43.59;58.09;;
72276;Laerm;61204;49.980;8.358;2023-03-23T00:31:12;51.62;43.52;58.72;;
72276;Laerm;61204;49.980;8.358;2023-03-23T00:33:39;50.26;44.41;55.52;;
72276;Laerm;61204;49.980;8.358;2023-03-23T00:36:10;49.87;44.62;57.08;;
72276;Laerm;61204;49.980;8.358;2023-03-23T00:38:40;50.23;41.80;60.78;;
72276;Laerm;61204;49.980;8.358;2023-03-23T00:41:09;50.09;44.07;59.82;;
72276;Laerm;61204;49.980;8.358;2023-03-23T00:43:38;49.63;41.33;56.34;;
72276;Laerm;61204;49.980;8.358;2023-03-23T00:46:04;49.99;43.48;55.54;;
72276;Laerm;61204;49.980;8.358;2023-03-23T00:48:37;49.65;41.75;59.60;;
72276;Laerm;61204;49.980;8.358;2023-03-23T00:51:11;50.37;43.43;58.73;;
72276;Laerm;61204;49.980;8.358;2023-03-23T00:53:38;51.14;45.37;57.22;;
72276;Laerm;61204;49.980;8.358;2023-03-23T00:56:04;50.78;44.74;58.49;;
72276;Laerm;61204;49.980;8.358;2023-03-23T00:58:30;49.99;42.83;56.52;;
72276;Laerm;61204;49.980;8.358;2023-03-23T01:00:55;50.83;42.29;61.12;;
72276;Laerm;61204;49.980;8.358;2023-03-23T01:03:22;50.03;43.27;56.35;;
72276;Laerm;61204;49.980;8.358;2023-03-23T01:05:51;47.56;40.10;54.50;;
72276;Laerm;61204;49.980;8.358;2023-03-23T01:08:18;49.85;41.37;56.02;;
72276;Laerm;61204;49.980;8.358;2023-03-23T01:10:46;50.86;45.30;57.51;;
72276;Laerm;61204;49.980;8.358;2023-03-23T01:13:12;49.74;43.56;55.76;;
72276;Laerm;61204;49.980;8.358;2023-03-23T01:15:38;50.48;42.00;55.84;;
72276;Laerm;61204;49.980;8.358;2023-03-23T01:18:04;51.18;45.71;56.68;;
72276;Laerm;61204;49.980;8.358;2023-03-23T01:20:30;48.99;43.05;55.28;;
72276;Laerm;61204;49.980;8.358;2023-03-23T01:22:58;51.60;43.83;59.91;;
72276;Laerm;61204;49.980;8.358;2023-03-23T01:25:28;51.06;44.39;59.10;;
72276;Laerm;61204;49.980;8.358;2023-03-23T01:27:54;54.49;44.75;68.28;;
72276;Laerm;61204;49.980;8.358;2023-03-23T01:30:23;55.12;46.70;68.62;;
72276;Laerm;61204;49.980;8.358;2023-03-23T01:32:49;50.76;45.34;58.63;;
72276;Laerm;61204;49.980;8.358;2023-03-23T01:35:16;51.82;44.18;63.01;;
72276;Laerm;61204;49.980;8.358;2023-03-23T01:37:42;51.30;45.40;59.14;;
72276;Laerm;61204;49.980;8.358;2023-03-23T01:40:09;49.99;42.74;68.34;;
72276;Laerm;61204;49.980;8.358;2023-03-23T01:42:37;51.59;44.67;59.75;;
72276;Laerm;61204;49.980;8.358;2023-03-23T01:45:32;48.79;42.60;57.13;;
72276;Laerm;61204;49.980;8.358;2023-03-23T01:48:07;48.46;42.74;56.76;;
72276;Laerm;61204;49.980;8.358;2023-03-23T01:50:48;48.30;42.31;59.24;;
72276;Laerm;61204;49.980;8.358;2023-03-23T01:53:15;49.76;41.98;60.97;;
72276;Laerm;61204;49.980;8.358;2023-03-23T01:55:43;49.40;42.49;60.23;;
72276;Laerm;61204;49.980;8.358;2023-03-23T01:58:15;49.68;43.52;56.03;;
72276;Laerm;61204;49.980;8.358;2023-03-23T02:00:45;49.89;44.57;57.40;;
72276;Laerm;61204;49.980;8.358;2023-03-23T02:03:12;49.55;41.68;65.68;;
72276;Laerm;61204;49.980;8.358;2023-03-23T02:05:42;47.89;40.21;54.87;;
72276;Laerm;61204;49.980;8.358;2023-03-23T02:08:10;49.21;43.06;57.53;;
72276;Laerm;61204;49.980;8.358;2023-03-23T02:10:37;49.03;41.33;56.11;;
72276;Laerm;61204;49.980;8.358;2023-03-23T02:13:07;50.66;42.69;59.54;;
72276;Laerm;61204;49.980;8.358;2023-03-23T02:15:47;49.04;41.58;58.14;;
72276;Laerm;61204;49.980;8.358;2023-03-23T02:36:09;50.74;44.24;56.98;;
72276;Laerm;61204;49.980;8.358;2023-03-23T02:41:11;52.50;46.54;58.95;;
72276;Laerm;61204;49.980;8.358;2023-03-23T02:43:44;52.51;47.62;68.31;;
72276;Laerm;61204;49.980;8.358;2023-03-23T02:46:13;51.31;45.66;57.72;;
72276;Laerm;61204;49.980;8.358;2023-03-23T02:48:42;51.37;45.19;60.20;;
72276;Laerm;61204;49.980;8.358;2023-03-23T02:51:13;52.19;46.67;59.00;;
72276;Laerm;61204;49.980;8.358;2023-03-23T02:53:42;50.79;44.94;60.30;;
72276;Laerm;61204;49.980;8.358;2023-03-23T02:56:10;54.40;48.65;64.13;;
72276;Laerm;61204;49.980;8.358;2023-03-23T02:58:37;52.13;42.61;59.52;;
72276;Laerm;61204;49.980;8.358;2023-03-23T03:04:09;52.18;46.20;57.78;;
72276;Laerm;61204;49.980;8.358;2023-03-23T03:09:41;52.78;46.47;62.49;;
72276;Laerm;61204;49.980;8.358;2023-03-23T03:13:03;52.47;44.50;59.41;;
72276;Laerm;61204;49.980;8.358;2023-03-23T03:15:41;53.65;47.90;66.90;;
72276;Laerm;61204;49.980;8.358;2023-03-23T03:21:14;54.65;47.23;63.19;;
72276;Laerm;61204;49.980;8.358;2023-03-23T03:23:46;54.30;49.05;61.02;;
72276;Laerm;61204;49.980;8.358;2023-03-23T03:26:15;52.99;48.22;61.37;;
72276;Laerm;61204;49.980;8.358;2023-03-23T03:28:45;53.74;47.66;61.14;;
72276;Laerm;61204;49.980;8.358;2023-03-23T03:31:17;53.32;47.82;59.71;;
72276;Laerm;61204;49.980;8.358;2023-03-23T03:33:44;53.62;47.64;65.13;;
72276;Laerm;61204;49.980;8.358;2023-03-23T03:36:18;53.68;48.15;65.91;;
72276;Laerm;61204;49.980;8.358;2023-03-23T03:38:49;53.01;47.09;60.40;;
72276;Laerm;61204;49.980;8.358;2023-03-23T03:41:16;52.65;45.14;62.12;;
72276;Laerm;61204;49.980;8.358;2023-03-23T03:43:44;53.71;48.64;59.91;;
72276;Laerm;61204;49.980;8.358;2023-03-23T03:46:10;54.47;49.73;60.79;;
72276;Laerm;61204;49.980;8.358;2023-03-23T03:48:36;53.21;47.55;61.22;;
72276;Laerm;61204;49.980;8.358;2023-03-23T03:51:04;53.69;47.43;60.15;;
72276;Laerm;61204;49.980;8.358;2023-03-23T03:53:29;54.54;47.64;71.05;;
72276;Laerm;61204;49.980;8.358;2023-03-23T03:55:56;54.58;47.91;62.49;;
72276;Laerm;61204;49.980;8.358;2023-03-23T03:58:26;55.98;48.89;64.73;;
72276;Laerm;61204;49.980;8.358;2023-03-23T04:00:58;55.11;48.54;63.47;;
72276;Laerm;61204;49.980;8.358;2023-03-23T04:03:25;55.96;49.08;64.76;;
72276;Laerm;61204;49.980;8.358;2023-03-23T04:05:55;56.15;48.54;64.18;;
72276;Laerm;61204;49.980;8.358;2023-03-23T04:08:22;56.48;49.76;64.09;;
72276;Laerm;61204;49.980;8.358;2023-03-23T04:10:49;57.23;50.98;69.17;;
72276;Laerm;61204;49.980;8.358;2023-03-23T04:13:15;56.56;50.63;67.47;;
72276;Laerm;61204;49.980;8.358;2023-03-23T04:15:40;57.05;50.75;65.39;;
72276;Laerm;61204;49.980;8.358;2023-03-23T04:18:06;57.56;51.93;66.70;;
72276;Laerm;61204;49.980;8.358;2023-03-23T04:20:32;57.10;49.88;65.65;;
72276;Laerm;61204;49.980;8.358;2023-03-23T04:23:00;57.00;49.79;65.49;;
72276;Laerm;61204;49.980;8.358;2023-03-23T04:25:25;56.84;50.78;66.98;;
72276;Laerm;61204;49.980;8.358;2023-03-23T04:27:53;58.12;51.74;65.46;;
72276;Laerm;61204;49.980;8.358;2023-03-23T04:30:24;58.02;52.36;65.17;;
72276;Laerm;61204;49.980;8.358;2023-03-23T04:32:53;58.00;52.13;65.83;;
72276;Laerm;61204;49.980;8.358;2023-03-23T04:35:23;58.05;52.57;65.65;;
72276;Laerm;61204;49.980;8.358;2023-03-23T04:37:53;58.22;52.53;66.01;;
72276;Laerm;61204;49.980;8.358;2023-03-23T04:40:20;57.46;51.70;70.71;;
72276;Laerm;61204;49.980;8.358;2023-03-23T04:42:47;57.86;52.29;67.00;;
72276;Laerm;61204;49.980;8.358;2023-03-23T04:45:17;60.54;52.34;75.29;;
72276;Laerm;61204;49.980;8.358;2023-03-23T04:47:49;58.59;52.03;75.48;;
72276;Laerm;61204;49.980;8.358;2023-03-23T04:50:21;58.70;52.78;70.03;;
72276;Laerm;61204;49.980;8.358;2023-03-23T04:52:50;57.70;51.78;74.29;;
72276;Laerm;61204;49.980;8.358;2023-03-23T04:55:18;59.60;52.30;78.44;;
72276;Laerm;61204;49.980;8.358;2023-03-23T04:57:47;57.63;51.56;66.91;;
72276;Laerm;61204;49.980;8.358;2023-03-23T05:00:13;58.46;50.68;66.39;;
72276;Laerm;61204;49.980;8.358;2023-03-23T05:02:43;58.95;53.10;67.05;;
72276;Laerm;61204;49.980;8.358;2023-03-23T05:05:11;57.04;52.38;65.66;;
72276;Laerm;61204;49.980;8.358;2023-03-23T05:07:41;56.83;51.29;65.27;;
72276;Laerm;61204;49.980;8.358;2023-03-23T05:10:09;56.73;52.72;61.60;;
72276;Laerm;61204;49.980;8.358;2023-03-23T05:12:35;57.33;50.95;73.18;;
72276;Laerm;61204;49.980;8.358;2023-03-23T05:15:01;57.07;52.81;61.89;;
72276;Laerm;61204;49.980;8.358;2023-03-23T05:17:27;56.89;52.64;66.03;;
72276;Laerm;61204;49.980;8.358;2023-03-23T05:19:55;58.39;51.81;71.16;;
72276;Laerm;61204;49.980;8.358;2023-03-23T05:22:26;57.23;52.20;64.97;;
72276;Laerm;61204;49.980;8.358;2023-03-23T05:24:52;57.72;52.78;70.04;;
72276;Laerm;61204;49.980;8.358;2023-03-23T05:27:20;57.94;52.40;68.52;;
72276;Laerm;61204;49.980;8.358;2023-03-23T05:29:48;58.36;53.74;70.95;;
72276;Laerm;61204;49.980;8.358;2023-03-23T05:32:17;59.43;52.62;76.54;;
72276;Laerm;61204;49.980;8.358;2023-03-23T05:34:44;58.38;52.81;72.43;;
72276;Laerm;61204;49.980;8.358;2023-03-23T05:37:12;58.84;53.54;72.29;;
72276;Laerm;61204;49.980;8.358;2023-03-23T05:39:39;58.56;53.98;71.33;;
72276;Laerm;61204;49.980;8.358;2023-03-23T05:42:07;58.77;54.38;69.44;;
72276;Laerm;61204;49.980;8.358;2023-03-23T05:44:33;56.74;52.74;66.57;;
72276;Laerm;61204;49.980;8.358;2023-03-23T05:47:01;57.67;52.23;68.47;;
72276;Laerm;61204;49.980;8.358;2023-03-23T05:49:27;57.17;52.63;70.40;;
72276;Laerm;61204;49.980;8.358;2023-03-23T05:51:55;57.43;52.70;66.08;;
72276;Laerm;61204;49.980;8.358;2023-03-23T05:54:20;57.22;52.61;65.90;;
72276;Laerm;61204;49.980;8.358;2023-03-23T05:56:48;57.71;53.67;63.27;;
72276;Laerm;61204;49.980;8.358;2023-03-23T05:59:14;56.70;52.01;65.38;;
72276;Laerm;61204;49.980;8.358;2023-03-23T06:01:40;56.69;52.39;68.67;;
72276;Laerm;61204;49.980;8.358;2023-03-23T06:04:06;57.41;53.17;63.64;;
72276;Laerm;61204;49.980;8.358;2023-03-23T06:06:31;57.58;53.43;70.55;;
72276;Laerm;61204;49.980;8.358;2023-03-23T06:08:59;59.01;54.79;74.47;;
72276;Laerm;61204;49.980;8.358;2023-03-23T06:11:25;58.24;53.51;64.00;;
72276;Laerm;61204;49.980;8.358;2023-03-23T06:13:52;56.73;52.61;62.84;;
72276;Laerm;61204;49.980;8.358;2023-03-23T06:16:20;56.52;53.04;67.81;;
72276;Laerm;61204;49.980;8.358;2023-03-23T06:18:45;57.33;53.65;67.55;;
72276;Laerm;61204;49.980;8.358;2023-03-23T06:21:14;56.87;53.05;65.08;;
72276;Laerm;61204;49.980;8.358;2023-03-23T06:23:39;56.67;52.54;71.25;;
72276;Laerm;61204;49.980;8.358;2023-03-23T06:26:07;55.98;51.79;75.05;;
72276;Laerm;61204;49.980;8.358;2023-03-23T06:28:34;58.28;53.90;65.79;;
72276;Laerm;61204;49.980;8.358;2023-03-23T06:31:02;57.37;52.60;64.47;;
72276;Laerm;61204;49.980;8.358;2023-03-23T06:33:29;56.88;52.37;66.94;;
72276;Laerm;61204;49.980;8.358;2023-03-23T06:35:55;57.76;52.87;68.61;;
72276;Laerm;61204;49.980;8.358;2023-03-23T06:38:21;57.80;52.98;64.46;;
72276;Laerm;61204;49.980;8.358;2023-03-23T06:40:46;58.27;54.12;70.95;;
72276;Laerm;61204;49.980;8.358;2023-03-23T06:43:13;57.43;54.26;64.06;;
72276;Laerm;61204;49.980;8.358;2023-03-23T06:45:39;58.53;53.24;64.60;;
72276;Laerm;61204;49.980;8.358;2023-03-23T06:48:05;57.95;54.04;62.66;;
72276;Laerm;61204;49.980;8.358;2023-03-23T06:50:31;56.52;52.26;62.06;;
72276;Laerm;61204;49.980;8.358;2023-03-23T06:52:56;57.46;53.25;66.46;;
72276;Laerm;61204;49.980;8.358;2023-03-23T06:55:22;57.81;53.88;70.63;;
72276;Laerm;61204;49.980;8.358;2023-03-23T06:57:47;57.58;53.87;61.72;;
72276;Laerm;61204;49.980;8.358;2023-03-23T07:00:14;58.62;53.59;65.21;;
72276;Laerm;61204;49.980;8.358;2023-03-23T07:02:40;58.12;54.07;64.31;;
72276;Laerm;61204;49.980;8.358;2023-03-23T07:05:08;58.69;54.43;71.49;;
72276;Laerm;61204;49.980;8.358;2023-03-23T07:07:35;58.87;54.88;62.98;;
72276;Laerm;61204;49.980;8.358;2023-03-23T07:10:03;59.27;54.61;64.83;;
72276;Laerm;61204;49.980;8.358;2023-03-23T07:12:29;59.36;54.36;64.70;;
72276;Laerm;61204;49.980;8.358;2023-03-23T07:14:54;58.67;54.89;64.12;;
72276;Laerm;61204;49.980;8.358;2023-03-23T07:17:21;59.01;54.15;64.94;;
72276;Laerm;61204;49.980;8.358;2023-03-23T07:19:46;59.21;54.53;63.95;;
72276;Laerm;61204;49.980;8.358;2023-03-23T07:22:12;58.53;53.96;63.89;;
72276;Laerm;61204;49.980;8.358;2023-03-23T07:24:37;59.47;54.34;65.81;;
72276;Laerm;61204;49.980;8.358;2023-03-23T07:27:03;59.26;54.86;64.46;;
72276;Laerm;61204;49.980;8.358;2023-03-23T07:29:29;58.68;54.71;65.72;;
72276;Laerm;61204;49.980;8.358;2023-03-23T07:31:55;58.90;54.46;64.94;;
72276;Laerm;61204;49.980;8.358;2023-03-23T07:34:20;58.43;53.68;70.70;;
72276;Laerm;61204;49.980;8.358;2023-03-23T07:36:46;58.54;54.10;66.85;;
72276;Laerm;61204;49.980;8.358;2023-03-23T07:39:13;59.26;54.61;65.45;;
72276;Laerm;61204;49.980;8.358;2023-03-23T07:41:39;59.50;54.32;68.05;;
72276;Laerm;61204;49.980;8.358;2023-03-23T07:44:05;58.34;54.06;68.23;;
72276;Laerm;61204;49.980;8.358;2023-03-23T07:46:32;59.14;55.29;67.90;;
72276;Laerm;61204;49.980;8.358;2023-03-23T07:48:58;58.56;54.00;64.64;;
72276;Laerm;61204;49.980;8.358;2023-03-23T07:51:25;58.83;55.16;71.57;;
72276;Laerm;61204;49.980;8.358;2023-03-23T07:53:51;59.39;54.23;64.66;;
72276;Laerm;61204;49.980;8.358;2023-03-23T07:56:17;59.44;55.31;69.18;;
72276;Laerm;61204;49.980;8.358;2023-03-23T07:58:46;59.89;55.63;69.31;;
72276;Laerm;61204;49.980;8.358;2023-03-23T08:01:15;59.95;55.18;67.09;;
72276;Laerm;61204;49.980;8.358;2023-03-23T08:03:41;59.55;55.66;65.17;;
72276;Laerm;61204;49.980;8.358;2023-03-23T08:06:07;59.02;53.87;65.04;;
72276;Laerm;61204;49.980;8.358;2023-03-23T08:08:34;59.63;54.62;68.36;;
72276;Laerm;61204;49.980;8.358;2023-03-23T08:11:00;59.53;55.66;66.41;;
72276;Laerm;61204;49.980;8.358;2023-03-23T08:13:25;59.37;54.57;64.39;;
72276;Laerm;61204;49.980;8.358;2023-03-23T08:15:51;58.56;52.33;66.06;;
72276;Laerm;61204;49.980;8.358;2023-03-23T08:18:17;58.99;54.74;64.90;;
72276;Laerm;61204;49.980;8.358;2023-03-23T08:20:44;59.43;55.59;64.64;;
72276;Laerm;61204;49.980;8.358;2023-03-23T08:23:13;59.00;54.82;64.50;;
72276;Laerm;61204;49.980;8.358;2023-03-23T08:25:42;59.37;55.26;63.62;;
72276;Laerm;61204;49.980;8.358;2023-03-23T08:28:10;59.41;54.91;65.98;;
72276;Laerm;61204;49.980;8.358;2023-03-23T08:30:38;59.45;54.49;64.73;;
72276;Laerm;61204;49.980;8.358;2023-03-23T08:33:05;58.90;53.76;64.60;;
72276;Laerm;61204;49.980;8.358;2023-03-23T08:35:31;59.22;55.27;64.33;;
72276;Laerm;61204;49.980;8.358;2023-03-23T08:37:56;59.23;54.66;68.46;;
72276;Laerm;61204;49.980;8.358;2023-03-23T08:40:24;57.88;53.98;62.81;;
72276;Laerm;61204;49.980;8.358;2023-03-23T08:42:52;58.61;54.64;62.95;;
72276;Laerm;61204;49.980;8.358;2023-03-23T08:45:21;58.53;54.48;64.78;;
72276;Laerm;61204;49.980;8.358;2023-03-23T08:47:50;60.35;55.69;65.71;;
72276;Laerm;61204;49.980;8.358;2023-03-23T08:50:25;59.55;55.57;65.39;;
72276;Laerm;61204;49.980;8.358;2023-03-23T08:52:53;59.40;55.48;65.85;;
72276;Laerm;61204;49.980;8.358;2023-03-23T08:55:20;59.54;54.89;66.63;;
72276;Laerm;61204;49.980;8.358;2023-03-23T08:57:47;58.92;54.31;64.36;;
72276;Laerm;61204;49.980;8.358;2023-03-23T09:00:19;59.36;54.65;65.28;;
72276;Laerm;61204;49.980;8.358;2023-03-23T09:02:47;58.68;55.05;65.00;;
72276;Laerm;61204;49.980;8.358;2023-03-23T09:05:19;58.76;54.39;65.99;;
72276;Laerm;61204;49.980;8.358;2023-03-23T09:07:48;58.87;54.61;66.39;;
72276;Laerm;61204;49.980;8.358;2023-03-23T09:10:18;58.63;54.70;64.84;;
72276;Laerm;61204;49.980;8.358;2023-03-23T09:12:45;58.29;54.24;62.94;;
72276;Laerm;61204;49.980;8.358;2023-03-23T09:15:15;57.77;52.72;64.90;;
72276;Laerm;61204;49.980;8.358;2023-03-23T09:17:45;59.44;55.52;64.31;;
72276;Laerm;61204;49.980;8.358;2023-03-23T09:20:13;59.17;54.16;63.55;;
72276;Laerm;61204;49.980;8.358;2023-03-23T09:22:43;58.65;54.67;65.53;;
72276;Laerm;61204;49.980;8.358;2023-03-23T09:25:13;58.78;54.36;69.81;;
72276;Laerm;61204;49.980;8.358;2023-03-23T09:27:40;59.14;54.67;71.56;;
72276;Laerm;61204;49.980;8.358;2023-03-23T09:30:10;58.76;54.04;65.80;;
72276;Laerm;61204;49.980;8.358;2023-03-23T09:32:38;58.56;54.07;63.67;;
72276;Laerm;61204;49.980;8.358;2023-03-23T09:35:07;59.64;53.18;68.04;;
72276;Laerm;61204;49.980;8.358;2023-03-23T09:37:34;57.60;53.04;67.28;;
72276;Laerm;61204;49.980;8.358;2023-03-23T09:40:02;60.08;52.84;82.28;;
72276;Laerm;61204;49.980;8.358;2023-03-23T09:45:37;61.00;53.45;80.51;;
72276;Laerm;61204;49.980;8.358;2023-03-23T09:51:02;60.34;53.33;75.50;;
72276;Laerm;61204;49.980;8.358;2023-03-23T09:53:42;61.00;54.75;78.16;;
72276;Laerm;61204;49.980;8.358;2023-03-23T09:56:13;62.55;54.36;78.35;;
72276;Laerm;61204;49.980;8.358;2023-03-23T09:59:29;58.23;53.65;68.89;;
72276;Laerm;61204;49.980;8.358;2023-03-23T10:02:13;59.09;54.00;77.01;;
72276;Laerm;61204;49.980;8.358;2023-03-23T10:04:49;61.91;53.90;76.98;;
72276;Laerm;61204;49.980;8.358;2023-03-23T10:07:23;60.10;54.84;72.35;;
72276;Laerm;61204;49.980;8.358;2023-03-23T10:09:58;58.81;53.60;69.09;;
72276;Laerm;61204;49.980;8.358;2023-03-23T10:12:52;60.64;53.36;78.50;;
72276;Laerm;61204;49.980;8.358;2023-03-23T10:15:29;58.42;53.59;63.65;;
72276;Laerm;61204;49.980;8.358;2023-03-23T10:18:04;58.20;54.17;72.74;;
72276;Laerm;61204;49.980;8.358;2023-03-23T10:20:57;58.48;53.70;66.47;;
72276;Laerm;61204;49.980;8.358;2023-03-23T10:23:59;59.40;53.53;69.84;;
72276;Laerm;61204;49.980;8.358;2023-03-23T10:31:38;59.47;52.99;72.27;;
72276;Laerm;61204;49.980;8.358;2023-03-23T10:34:21;60.28;53.19;79.90;;
72276;Laerm;61204;49.980;8.358;2023-03-23T10:37:21;57.93;52.68;65.05;;
72276;Laerm;61204;49.980;8.358;2023-03-23T10:39:57;58.17;53.83;63.96;;
72276;Laerm;61204;49.980;8.358;2023-03-23T10:42:33;58.16;52.40;74.17;;
72276;Laerm;61204;49.980;8.358;2023-03-23T10:45:16;61.35;54.47;76.58;;
72276;Laerm;61204;49.980;8.358;2023-03-23T10:47:51;58.65;53.88;72.56;;
72276;Laerm;61204;49.980;8.358;2023-03-23T10:50:26;59.90;53.11;73.83;;
72276;Laerm;61204;49.980;8.358;2023-03-23T10:52:57;58.50;53.47;76.98;;
72276;Laerm;61204;49.980;8.358;2023-03-23T10:55:25;57.81;52.49;65.90;;
72276;Laerm;61204;49.980;8.358;2023-03-23T10:58:25;57.95;52.53;71.76;;
72276;Laerm;61204;49.980;8.358;2023-03-23T11:00:54;58.76;53.69;75.12;;
72276;Laerm;61204;49.980;8.358;2023-03-23T11:03:44;57.74;52.46;67.95;;
72276;Laerm;61204;49.980;8.358;2023-03-23T11:06:24;59.34;53.18;73.34;;
72276;Laerm;61204;49.980;8.358;2023-03-23T11:09:00;58.58;53.01;77.45;;
72276;Laerm;61204;49.980;8.358;2023-03-23T11:11:39;61.59;53.33;85.24;;
72276;Laerm;61204;49.980;8.358;2023-03-23T11:14:30;57.96;52.43;67.00;;
72276;Laerm;61204;49.980;8.358;2023-03-23T11:17:00;58.81;53.98;66.73;;
72276;Laerm;61204;49.980;8.358;2023-03-23T11:19:36;59.05;52.76;70.47;;
72276;Laerm;61204;49.980;8.358;2023-03-23T11:22:08;59.00;53.80;70.11;;
72276;Laerm;61204;49.980;8.358;2023-03-23T11:24:41;61.15;53.39;79.08;;
72276;Laerm;61204;49.980;8.358;2023-03-23T11:27:07;57.94;51.95;70.70;;
72276;Laerm;61204;49.980;8.358;2023-03-23T11:29:36;59.66;53.53;75.99;;
72276;Laerm;61204;49.980;8.358;2023-03-23T11:32:12;58.29;53.89;72.06;;
72276;Laerm;61204;49.980;8.358;2023-03-23T11:34:47;59.43;53.79;70.79;;
72276;Laerm;61204;49.980;8.358;2023-03-23T11:40:01;58.19;54.12;63.78;;
72276;Laerm;61204;49.980;8.358;2023-03-23T11:45:20;60.49;54.48;77.51;;
72276;Laerm;61204;49.980;8.358;2023-03-23T11:48:25;58.59;53.68;66.64;;
72276;Laerm;61204;49.980;8.358;2023-03-23T11:50:57;62.17;52.89;78.77;;
72276;Laerm;61204;49.980;8.358;2023-03-23T11:53:34;68.22;54.41;80.40;;
72276;Laerm;61204;49.980;8.358;2023-03-23T11:56:11;62.32;52.15;79.43;;
72276;Laerm;61204;49.980;8.358;2023-03-23T11:58:40;59.02;52.38;77.77;;
72276;Laerm;61204;49.980;8.358;2023-03-23T12:13:04;57.96;52.54;73.88;;
72276;Laerm;61204;49.980;8.358;2023-03-23T12:21:34;57.97;52.50;72.11;;
72276;Laerm;61204;49.980;8.358;2023-03-23T12:30:49;58.28;54.08;64.16;;
72276;Laerm;61204;49.980;8.358;2023-03-23T12:39:30;58.84;54.04;72.43;;
72276;Laerm;61204;49.980;8.358;2023-03-23T12:45:46;58.15;52.95;69.24;;
72276;Laerm;61204;49.980;8.358;2023-03-23T12:48:26;58.26;53.03;66.19;;
72276;Laerm;61204;49.980;8.358;2023-03-23T12:57:17;58.10;52.72;81.63;;
72276;Laerm;61204;49.980;8.358;2023-03-23T12:59:59;59.89;55.58;74.05;;
72276;Laerm;61204;49.980;8.358;2023-03-23T13:02:34;61.13;54.57;75.90;;
72276;Laerm;61204;49.980;8.358;2023-03-23T13:05:25;58.41;53.00;74.51;;
72276;Laerm;61204;49.980;8.358;2023-03-23T13:08:21;60.00;53.53;75.69;;
72276;Laerm;61204;49.980;8.358;2023-03-23T13:10:50;58.57;53.25;72.80;;
72276;Laerm;61204;49.980;8.358;2023-03-23T13:13:44;60.29;52.84;76.78;;
72276;Laerm;61204;49.980;8.358;2023-03-23T13:21:58;60.26;54.92;78.95;;
72276;Laerm;61204;49.980;8.358;2023-03-23T13:24:29;57.73;53.26;67.97;;
72276;Laerm;61204;49.980;8.358;2023-03-23T13:27:00;59.37;51.99;74.42;;
72276;Laerm;61204;49.980;8.358;2023-03-23T13:29:27;57.65;53.60;65.95;;
72276;Laerm;61204;49.980;8.358;2023-03-23T13:32:15;57.82;53.44;68.16;;
72276;Laerm;61204;49.980;8.358;2023-03-23T13:34:42;57.38;52.71;64.18;;
72276;Laerm;61204;49.980;8.358;2023-03-23T13:37:28;57.76;53.64;66.62;;
72276;Laerm;61204;49.980;8.358;2023-03-23T13:42:32;57.55;53.05;65.63;;
72276;Laerm;61204;49.980;8.358;2023-03-23T13:48:24;57.56;53.51;63.51;;
72276;Laerm;61204;49.980;8.358;2023-03-23T13:50:57;58.37;53.53;65.84;;
72276;Laerm;61204;49.980;8.358;2023-03-23T13:53:44;58.40;52.63;64.08;;
72276;Laerm;61204;49.980;8.358;2023-03-23T13:56:35;57.49;52.41;65.56;;
72276;Laerm;61204;49.980;8.358;2023-03-23T13:59:27;57.60;53.12;66.66;;
72276;Laerm;61204;49.980;8.358;2023-03-23T14:02:31;56.55;51.68;64.81;;
72276;Laerm;61204;49.980;8.358;2023-03-23T14:05:28;56.72;51.74;66.90;;
72276;Laerm;61204;49.980;8.358;2023-03-23T14:08:22;57.36;52.39;66.51;;
72276;Laerm;61204;49.980;8.358;2023-03-23T14:10:59;58.36;53.27;71.07;;
72276;Laerm;61204;49.980;8.358;2023-03-23T14:14:07;61.67;53.10;81.96;;
72276;Laerm;61204;49.980;8.358;2023-03-23T14:16:44;58.51;53.72;71.03;;
72276;Laerm;61204;49.980;8.358;2023-03-23T14:19:22;58.47;53.45;72.10;;
72276;Laerm;61204;49.980;8.358;2023-03-23T14:22:00;58.46;54.42;64.73;;
72276;Laerm;61204;49.980;8.358;2023-03-23T14:24:39;59.57;54.76;74.26;;
72276;Laerm;61204;49.980;8.358;2023-03-23T14:29:33;59.14;54.23;75.06;;
72276;Laerm;61204;49.980;8.358;2023-03-23T14:32:00;58.61;53.64;72.96;;
72276;Laerm;61204;49.980;8.358;2023-03-23T14:34:30;61.08;53.89;76.82;;
72276;Laerm;61204;49.980;8.358;2023-03-23T14:37:00;57.78;52.70;68.36;;
72276;Laerm;61204;49.980;8.358;2023-03-23T14:39:28;64.10;53.86;87.50;;
72276;Laerm;61204;49.980;8.358;2023-03-23T14:42:03;57.93;52.96;71.64;;
72276;Laerm;61204;49.980;8.358;2023-03-23T14:44:34;57.46;52.81;71.47;;
72276;Laerm;61204;49.980;8.358;2023-03-23T14:47:05;58.50;53.18;68.02;;
72276;Laerm;61204;49.980;8.358;2023-03-23T14:49:40;57.10;52.95;69.63;;
72276;Laerm;61204;49.980;8.358;2023-03-23T14:52:13;59.24;51.92;76.19;;
72276;Laerm;61204;49.980;8.358;2023-03-23T14:54:41;57.39;51.34;68.69;;
72276;Laerm;61204;49.980;8.358;2023-03-23T14:57:26;58.28;51.84;76.46;;
72276;Laerm;61204;49.980;8.358;2023-03-23T14:59:53;58.89;49.86;77.20;;
72276;Laerm;61204;49.980;8.358;2023-03-23T15:02:39;57.77;51.30;74.05;;
72276;Laerm;61204;49.980;8.358;2023-03-23T15:05:14;59.06;48.79;78.66;;
72276;Laerm;61204;49.980;8.358;2023-03-23T15:07:44;56.40;50.92;74.56;;
72276;Laerm;61204;49.980;8.358;2023-03-23T15:10:18;57.16;52.40;70.01;;
72276;Laerm;61204;49.980;8.358;2023-03-23T15:12:48;57.16;50.09;73.39;;
72276;Laerm;61204;49.980;8.358;2023-03-23T15:15:35;56.56;50.41;74.39;;
72276;Laerm;61204;49.980;8.358;2023-03-23T15:18:03;60.60;51.73;75.87;;
72276;Laerm;61204;49.980;8.358;2023-03-23T15:20:48;56.10;50.40;73.06;;
72276;Laerm;61204;49.980;8.358;2023-03-23T15:23:26;54.54;49.21;68.12;;
72276;Laerm;61204;49.980;8.358;2023-03-23T15:25:57;55.36;49.46;68.56;;
72276;Laerm;61204;49.980;8.358;2023-03-23T15:28:31;57.36;50.01;72.43;;
72276;Laerm;61204;49.980;8.358;2023-03-23T15:31:04;55.01;50.01;68.94;;
72276;Laerm;61204;49.980;8.358;2023-03-23T15:33:39;54.76;47.85;65.16;;
72276;Laerm;61204;49.980;8.358;2023-03-23T15:36:15;54.30;49.47;63.41;;
72276;Laerm;61204;49.980;8.358;2023-03-23T15:38:44;55.92;51.34;63.92;;
72276;Laerm;61204;49.980;8.358;2023-03-23T15:41:24;56.71;50.91;71.98;;
72276;Laerm;61204;49.980;8.358;2023-03-23T15:44:21;55.83;51.40;63.94;;
72276;Laerm;61204;49.980;8.358;2023-03-23T15:46:53;55.71;50.83;62.68;;
72276;Laerm;61204;49.980;8.358;2023-03-23T15:49:26;54.56;50.50;66.74;;